EDLP/PAD METAR and TAF weather

Enter ICAO airport designator
Station Type Date Time Source
EDLP METAR 2024/04/23 05:20 UTC NOAA

EDLP 230520Z 17005KT CAVOK M01/M03 Q1021


Station Type Date Time Source
EDLP Decoded METAR 2024/04/23 05:20 UTC NOAA

Paderborn / Lippstadt, Germany (EDLP) 51-37N 008-37E
Apr 23, 2024 - 01:20 AM EDT / 2024.04.23 0520 UTC
Wind: from the S (170 degrees) at 6 MPH (5 KT):0
Visibility: greater than 7 mile(s):0
Temperature: 30 F (-1 C)
Windchill: 23 F (-5 C):1
Dew Point: 26 F (-3 C)
Relative Humidity: 86%
Pressure (altimeter): 30.15 in. Hg (1021 hPa)
ob: EDLP 230520Z 17005KT CAVOK M01/M03 Q1021
cycle: 5

Station Type Date Time Source
EDLP TAF 2024/04/23 06:27 UTC NOAA